createdAt,value
2018-05-26T00:01:00.274Z,15.73
2018-05-26T00:03:27.844Z,15.69
2018-05-26T00:05:55.494Z,15.68
2018-05-26T00:08:23.221Z,15.67
2018-05-26T00:10:50.937Z,15.66
2018-05-26T00:13:18.488Z,15.67
2018-05-26T00:15:46.097Z,15.73
2018-05-26T00:18:13.655Z,15.74
2018-05-26T00:20:41.261Z,15.73
2018-05-26T00:23:08.889Z,15.67
2018-05-26T00:25:36.456Z,15.65
2018-05-26T00:28:04.028Z,15.66
2018-05-26T00:30:31.637Z,15.65
2018-05-26T00:32:59.191Z,15.56
2018-05-26T00:35:26.740Z,15.56
2018-05-26T00:37:54.361Z,15.54
2018-05-26T00:40:21.908Z,15.53
2018-05-26T00:42:49.671Z,15.52
2018-05-26T00:45:17.388Z,15.48
2018-05-26T00:47:44.952Z,15.47
2018-05-26T00:50:12.516Z,15.47
2018-05-26T00:52:40.244Z,15.44
2018-05-26T00:55:08.062Z,15.44
2018-05-26T00:57:35.805Z,15.43
2018-05-26T01:00:03.699Z,15.38
2018-05-26T01:02:31.257Z,15.36
2018-05-26T01:04:58.932Z,15.38
2018-05-26T01:07:26.494Z,15.42
2018-05-26T01:09:54.253Z,15.40
2018-05-26T01:12:21.801Z,15.38
2018-05-26T01:14:49.361Z,15.34
2018-05-26T01:17:16.914Z,15.31
2018-05-26T01:19:44.465Z,15.33
2018-05-26T01:22:12.161Z,15.30
2018-05-26T01:24:39.761Z,15.30
2018-05-26T01:27:07.340Z,15.32
2018-05-26T01:29:34.889Z,15.30
2018-05-26T01:32:02.733Z,15.22
2018-05-26T01:34:31.096Z,15.16
2018-05-26T01:36:58.641Z,15.12
2018-05-26T01:39:26.288Z,15.16
2018-05-26T01:41:54.108Z,15.14
2018-05-26T01:44:21.766Z,15.09
2018-05-26T01:46:49.447Z,15.01
2018-05-26T01:49:17.156Z,15.03
2018-05-26T01:51:44.712Z,15.00
2018-05-26T01:54:12.387Z,15.03
2018-05-26T01:56:40.011Z,15.03
2018-05-26T01:59:07.726Z,14.92
2018-05-26T02:01:35.446Z,14.84
2018-05-26T02:04:03.011Z,14.82
2018-05-26T02:06:30.699Z,14.77
2018-05-26T02:08:58.403Z,14.74
2018-05-26T02:11:26.131Z,14.77
2018-05-26T02:13:53.672Z,14.77
2018-05-26T02:16:21.224Z,14.73
2018-05-26T02:18:48.979Z,14.73
2018-05-26T02:21:16.545Z,14.64
2018-05-26T02:23:44.309Z,14.58
2018-05-26T02:26:11.873Z,14.57
2018-05-26T02:28:39.645Z,14.54
2018-05-26T02:31:07.213Z,14.42
2018-05-26T02:33:34.891Z,14.39
2018-05-26T02:36:02.503Z,14.37
2018-05-26T02:38:30.118Z,14.42
2018-05-26T02:40:57.686Z,14.42
2018-05-26T02:43:25.361Z,14.45
2018-05-26T02:45:52.933Z,14.49
2018-05-26T02:48:20.679Z,14.48
2018-05-26T02:50:48.415Z,14.46
2018-05-26T02:53:15.976Z,14.45
2018-05-26T02:55:43.525Z,14.42
2018-05-26T02:58:11.261Z,14.46
2018-05-26T03:00:38.823Z,14.43
2018-05-26T03:03:06.447Z,14.44
2018-05-26T03:05:39.541Z,14.46
2018-05-26T03:08:12.973Z,14.42
2018-05-26T03:10:46.016Z,14.45
2018-05-26T03:13:19.101Z,14.46
2018-05-26T03:15:49.153Z,14.51
2018-05-26T03:18:16.929Z,14.57
2018-05-26T03:20:44.496Z,14.56
2018-05-26T03:23:12.059Z,14.65
2018-05-26T03:25:39.620Z,14.70
2018-05-26T03:28:07.172Z,14.73
2018-05-26T03:30:34.980Z,14.73
2018-05-26T03:33:02.539Z,14.80
2018-05-26T03:35:30.098Z,14.85
2018-05-26T03:37:57.717Z,14.87
2018-05-26T03:40:25.269Z,14.87
2018-05-26T03:42:52.882Z,14.84
2018-05-26T03:45:20.440Z,14.91
2018-05-26T03:47:48.048Z,14.82
2018-05-26T03:50:15.597Z,14.87
2018-05-26T03:52:43.141Z,14.83
2018-05-26T03:58:26.321Z,14.95
2018-05-26T04:00:53.991Z,15.03
2018-05-26T04:03:21.552Z,15.03
2018-05-26T04:05:49.297Z,15.16
2018-05-26T04:08:17.110Z,15.23
2018-05-26T04:10:44.800Z,15.27
2018-05-26T04:13:12.351Z,15.29
2018-05-26T04:15:39.952Z,15.35
2018-05-26T04:18:07.518Z,15.45
2018-05-26T04:20:35.217Z,15.54
2018-05-26T04:23:03.027Z,15.58
2018-05-26T04:25:30.585Z,15.64
2018-05-26T04:27:58.147Z,15.69
2018-05-26T04:30:25.692Z,15.69
2018-05-26T04:32:53.249Z,15.77
2018-05-26T04:35:21.030Z,15.77
2018-05-26T04:37:48.664Z,15.85
2018-05-26T04:40:16.272Z,15.94
2018-05-26T04:42:44.005Z,16.03
2018-05-26T04:45:11.572Z,16.07
2018-05-26T04:47:39.174Z,16.12
2018-05-26T04:50:07.031Z,16.16
2018-05-26T04:52:34.621Z,16.27
2018-05-26T04:55:02.188Z,16.43
2018-05-26T04:57:29.736Z,16.51
2018-05-26T04:59:57.297Z,16.65
2018-05-26T05:02:24.961Z,16.82
2018-05-26T05:04:52.520Z,17.01
2018-05-26T05:07:20.256Z,17.17
2018-05-26T05:09:47.925Z,17.37
2018-05-26T05:12:15.685Z,17.44
2018-05-26T05:14:43.310Z,17.62
2018-05-26T05:17:10.864Z,17.74
2018-05-26T05:19:38.527Z,17.91
2018-05-26T05:22:06.137Z,18.12
2018-05-26T05:24:33.753Z,18.24
2018-05-26T05:27:01.426Z,18.37
2018-05-26T05:29:29.168Z,18.66
2018-05-26T05:31:56.897Z,19.04
2018-05-26T05:34:24.759Z,19.24
2018-05-26T05:36:52.325Z,19.27
2018-05-26T05:39:20.005Z,19.22
2018-05-26T05:41:47.563Z,19.16
2018-05-26T05:44:15.230Z,19.16
2018-05-26T05:46:42.836Z,19.12
2018-05-26T05:49:10.410Z,19.12
2018-05-26T05:51:38.013Z,19.22
2018-05-26T05:54:05.803Z,19.20
2018-05-26T05:56:33.541Z,19.20
2018-05-26T05:59:01.100Z,19.30
2018-05-26T06:01:28.757Z,19.46
2018-05-26T06:03:56.295Z,19.73
2018-05-26T06:06:23.848Z,19.91
2018-05-26T06:08:51.708Z,20.15
2018-05-26T06:11:19.429Z,20.33
2018-05-26T06:13:47.248Z,20.59
2018-05-26T06:16:14.958Z,20.86
2018-05-26T06:18:42.525Z,20.95
2018-05-26T06:21:10.190Z,20.98
2018-05-26T06:23:38.033Z,20.95
2018-05-26T06:26:05.636Z,21.05
2018-05-26T06:28:33.513Z,21.14
2018-05-26T06:31:01.076Z,21.18
2018-05-26T06:33:28.681Z,21.23
2018-05-26T06:35:56.259Z,21.30
2018-05-26T06:38:23.934Z,21.42
2018-05-26T06:40:51.723Z,21.42
2018-05-26T06:43:19.333Z,21.44
2018-05-26T06:45:46.941Z,21.55
2018-05-26T06:48:14.550Z,21.75
2018-05-26T06:50:42.205Z,21.96
2018-05-26T06:53:09.828Z,22.14
2018-05-26T06:55:37.655Z,22.18
2018-05-26T06:58:05.224Z,22.37
2018-05-26T07:00:32.896Z,22.33
2018-05-26T07:03:00.506Z,22.57
2018-05-26T07:05:28.052Z,22.73
2018-05-26T07:07:55.621Z,22.90
2018-05-26T07:10:23.188Z,22.89
2018-05-26T07:12:50.761Z,22.97
2018-05-26T07:15:18.361Z,22.95
2018-05-26T07:17:46.563Z,22.88
2018-05-26T07:20:14.183Z,22.79
2018-05-26T07:22:41.751Z,23.00
2018-05-26T07:25:09.308Z,22.93
2018-05-26T07:27:36.993Z,22.68
2018-05-26T07:30:04.560Z,22.83
2018-05-26T07:32:32.100Z,23.00
2018-05-26T07:34:59.669Z,23.12
2018-05-26T07:37:27.216Z,23.27
2018-05-26T07:39:54.920Z,23.28
2018-05-26T07:42:22.468Z,23.52
2018-05-26T07:44:50.015Z,23.95
2018-05-26T07:47:17.604Z,24.29
2018-05-26T07:49:45.152Z,24.35
2018-05-26T07:52:12.713Z,24.24
2018-05-26T07:54:40.260Z,24.20
2018-05-26T07:57:07.835Z,24.33
2018-05-26T07:59:35.384Z,24.13
2018-05-26T08:02:03.005Z,23.97
2018-05-26T08:04:30.548Z,23.88
2018-05-26T08:06:58.100Z,23.78
2018-05-26T08:09:25.654Z,23.82
2018-05-26T08:11:53.205Z,24.23
2018-05-26T08:14:20.764Z,24.78
2018-05-26T08:16:48.401Z,25.07
2018-05-26T08:19:15.952Z,25.30
2018-05-26T08:21:43.505Z,25.68
2018-05-26T08:24:11.065Z,26.09
2018-05-26T08:26:38.620Z,25.82
2018-05-26T08:29:06.172Z,25.50
2018-05-26T08:31:33.733Z,25.43
2018-05-26T08:34:01.285Z,25.66
2018-05-26T08:36:28.845Z,25.43
2018-05-26T08:38:56.403Z,25.50
2018-05-26T08:41:24.013Z,25.88
2018-05-26T08:43:51.559Z,25.86
2018-05-26T08:46:19.103Z,26.30
2018-05-26T08:48:46.684Z,26.45
2018-05-26T08:51:14.240Z,26.35
2018-05-26T08:53:41.839Z,26.33
2018-05-26T08:56:09.381Z,26.85
2018-05-26T08:58:36.948Z,27.19
2018-05-26T09:01:04.505Z,27.34
2018-05-26T09:03:32.164Z,27.38
2018-05-26T09:05:59.689Z,27.61
2018-05-26T09:08:27.240Z,27.72
2018-05-26T09:10:54.810Z,27.23
2018-05-26T09:13:22.360Z,27.10
2018-05-26T09:15:50.266Z,26.75
2018-05-26T09:18:17.865Z,27.00
2018-05-26T09:20:45.442Z,27.33
2018-05-26T09:23:12.994Z,27.55
2018-05-26T09:25:40.540Z,27.21
2018-05-26T09:28:08.096Z,27.20
2018-05-26T09:30:35.741Z,27.24
2018-05-26T09:33:03.292Z,27.38
2018-05-26T09:35:30.837Z,27.56
2018-05-26T09:37:58.437Z,27.78
2018-05-26T09:40:25.993Z,27.85
2018-05-26T09:42:53.535Z,27.99
2018-05-26T09:45:21.084Z,27.90
2018-05-26T09:47:48.633Z,28.04
2018-05-26T09:50:16.193Z,27.96
2018-05-26T09:52:43.749Z,28.08
2018-05-26T09:55:11.308Z,28.18
2018-05-26T09:57:38.905Z,28.14
2018-05-26T10:00:06.549Z,27.67
2018-05-26T10:02:34.103Z,27.91
2018-05-26T10:05:01.660Z,28.18
2018-05-26T10:07:29.213Z,28.20
2018-05-26T10:09:56.772Z,28.04
2018-05-26T10:12:24.346Z,28.33
2018-05-26T10:14:51.906Z,28.30
2018-05-26T10:17:19.472Z,28.15
2018-05-26T10:19:47.012Z,27.90
2018-05-26T10:22:14.625Z,27.98
2018-05-26T10:24:42.168Z,27.80
2018-05-26T10:27:09.720Z,27.97
2018-05-26T10:29:37.276Z,27.62
2018-05-26T10:32:04.865Z,27.32
2018-05-26T10:34:32.434Z,27.54
2018-05-26T10:36:59.984Z,27.59
2018-05-26T10:39:27.628Z,27.57
2018-05-26T10:41:55.189Z,27.57
2018-05-26T10:44:22.837Z,27.59
2018-05-26T10:46:50.402Z,27.81
2018-05-26T10:49:18.021Z,28.05
2018-05-26T10:51:45.585Z,28.08
2018-05-26T10:54:13.137Z,28.07
2018-05-26T10:56:40.977Z,28.18
2018-05-26T10:59:08.543Z,28.05
2018-05-26T11:01:36.137Z,28.32
2018-05-26T11:04:04.265Z,28.37
2018-05-26T11:06:43.501Z,28.32
2018-05-26T11:09:11.058Z,28.71
2018-05-26T11:11:38.608Z,28.89
2018-05-26T11:14:06.176Z,29.12
2018-05-26T11:16:33.761Z,29.36
2018-05-26T11:19:01.332Z,28.83
2018-05-26T11:21:28.896Z,28.25
2018-05-26T11:23:56.578Z,27.92
2018-05-26T11:26:24.064Z,27.82
2018-05-26T11:28:51.710Z,27.95
2018-05-26T11:31:19.241Z,27.89
2018-05-26T11:33:46.787Z,27.75
2018-05-26T11:36:14.380Z,27.60
2018-05-26T11:38:41.928Z,27.72
2018-05-26T11:41:09.487Z,27.90
2018-05-26T11:43:37.054Z,28.15
2018-05-26T11:46:04.636Z,28.22
2018-05-26T11:48:32.185Z,28.54
2018-05-26T11:50:59.781Z,28.63
2018-05-26T11:53:27.331Z,28.73
2018-05-26T11:55:54.881Z,28.66
2018-05-26T11:58:22.436Z,28.66
2018-05-26T12:00:49.984Z,28.76
2018-05-26T12:03:17.557Z,28.94
2018-05-26T12:05:45.105Z,29.05
2018-05-26T12:08:12.676Z,28.92
2018-05-26T12:10:40.248Z,28.70
2018-05-26T12:13:07.805Z,28.88
2018-05-26T12:15:35.367Z,29.00
2018-05-26T12:18:02.929Z,28.94
2018-05-26T12:20:30.492Z,28.86
2018-05-26T12:22:58.085Z,28.57
2018-05-26T12:25:25.711Z,28.03
2018-05-26T12:27:53.287Z,27.15
2018-05-26T12:30:20.836Z,26.71
2018-05-26T12:32:48.510Z,26.50
2018-05-26T12:35:16.338Z,26.34
2018-05-26T12:37:43.888Z,26.55
2018-05-26T12:40:11.440Z,26.89
2018-05-26T12:42:38.989Z,27.33
2018-05-26T12:45:06.603Z,27.53
2018-05-26T12:47:34.148Z,27.79
2018-05-26T12:50:01.701Z,27.98
2018-05-26T12:52:29.251Z,28.20
2018-05-26T12:54:56.799Z,28.34
2018-05-26T12:57:24.363Z,28.57
2018-05-26T12:59:51.921Z,28.49
2018-05-26T13:02:19.523Z,28.49
2018-05-26T13:04:47.085Z,28.55
2018-05-26T13:07:14.702Z,28.91
2018-05-26T13:09:42.261Z,29.01
2018-05-26T13:12:09.819Z,28.90
2018-05-26T13:14:37.412Z,28.84
2018-05-26T13:17:04.989Z,28.82
2018-05-26T13:19:32.559Z,28.72
2018-05-26T13:22:00.114Z,28.65
2018-05-26T13:24:27.676Z,28.92
2018-05-26T13:26:55.220Z,29.21
2018-05-26T13:29:22.863Z,29.51
2018-05-26T13:31:50.432Z,29.38
2018-05-26T13:34:17.993Z,29.33
2018-05-26T13:36:45.550Z,29.43
2018-05-26T13:39:13.096Z,29.48
2018-05-26T13:41:40.664Z,29.30
2018-05-26T13:44:08.211Z,29.51
2018-05-26T13:46:35.772Z,29.53
2018-05-26T13:49:03.353Z,29.55
2018-05-26T13:51:30.956Z,29.62
2018-05-26T13:53:58.512Z,29.63
2018-05-26T13:56:26.171Z,30.01
2018-05-26T13:58:53.692Z,30.27
2018-05-26T14:01:21.264Z,30.35
2018-05-26T14:03:48.826Z,30.33
2018-05-26T14:06:16.583Z,29.95
2018-05-26T14:08:44.144Z,29.62
2018-05-26T14:11:11.768Z,29.60
2018-05-26T14:13:39.524Z,29.75
2018-05-26T14:16:07.103Z,29.54
2018-05-26T14:18:34.737Z,29.17
2018-05-26T14:21:02.350Z,29.15
2018-05-26T14:23:29.949Z,29.26
2018-05-26T14:25:57.589Z,29.23
2018-05-26T14:28:25.141Z,29.34
2018-05-26T14:30:52.820Z,29.41
2018-05-26T14:33:20.392Z,29.47
2018-05-26T14:35:48.017Z,29.12
2018-05-26T14:38:15.571Z,28.84
2018-05-26T14:40:43.122Z,28.87
2018-05-26T14:43:10.721Z,28.94
2018-05-26T14:45:38.283Z,29.12
2018-05-26T14:48:05.856Z,29.21
2018-05-26T14:50:33.406Z,29.27
2018-05-26T14:53:01.108Z,29.12
2018-05-26T14:55:28.833Z,28.74
2018-05-26T14:57:56.674Z,28.46
2018-05-26T15:00:24.289Z,28.33
2018-05-26T15:02:51.852Z,28.07
2018-05-26T15:05:19.425Z,28.18
2018-05-26T15:07:47.162Z,28.24
2018-05-26T15:10:14.787Z,28.26
2018-05-26T15:12:42.385Z,28.14
2018-05-26T15:15:09.956Z,28.03
2018-05-26T15:17:37.558Z,27.84
2018-05-26T15:20:05.189Z,27.77
2018-05-26T15:22:32.741Z,27.54
2018-05-26T15:25:00.288Z,27.53
2018-05-26T15:27:27.840Z,27.52
2018-05-26T15:29:55.390Z,27.76
2018-05-26T15:32:22.965Z,28.09
2018-05-26T15:34:50.521Z,28.26
2018-05-26T15:37:18.139Z,27.97
2018-05-26T15:39:45.753Z,27.59
2018-05-26T15:42:13.306Z,27.26
2018-05-26T15:44:40.912Z,27.10
2018-05-26T15:47:08.479Z,26.98
2018-05-26T15:49:36.056Z,26.86
2018-05-26T15:52:03.635Z,26.67
2018-05-26T15:54:31.219Z,26.52
2018-05-26T15:56:58.765Z,26.45
2018-05-26T15:59:26.380Z,26.34
2018-05-26T16:01:53.930Z,26.28
2018-05-26T16:04:21.488Z,26.20
2018-05-26T16:06:49.045Z,26.25
2018-05-26T16:09:16.622Z,26.18
2018-05-26T16:11:44.189Z,26.16
2018-05-26T16:14:11.738Z,26.19
2018-05-26T16:16:39.340Z,26.28
2018-05-26T16:19:06.910Z,26.29
2018-05-26T16:21:34.521Z,26.35
2018-05-26T16:24:02.077Z,26.38
2018-05-26T16:26:29.633Z,26.40
2018-05-26T16:28:57.426Z,26.36
2018-05-26T16:31:25.027Z,26.26
2018-05-26T16:33:52.613Z,26.14
2018-05-26T16:36:20.172Z,26.03
2018-05-26T16:38:47.804Z,25.88
2018-05-26T16:41:15.365Z,25.79
2018-05-26T16:43:42.944Z,25.65
2018-05-26T16:46:10.528Z,25.56
2018-05-26T16:48:38.093Z,25.47
2018-05-26T16:51:05.674Z,25.37
2018-05-26T16:53:33.244Z,25.33
2018-05-26T16:56:00.865Z,25.28
2018-05-26T16:58:28.542Z,25.23
2018-05-26T17:00:56.212Z,25.14
2018-05-26T17:03:23.778Z,25.11
2018-05-26T17:05:51.897Z,25.10
2018-05-26T17:08:19.508Z,25.03
2018-05-26T17:10:47.107Z,24.93
2018-05-26T17:13:14.786Z,24.83
2018-05-26T17:15:42.401Z,24.78
2018-05-26T17:18:09.981Z,24.66
2018-05-26T17:20:37.549Z,24.60
2018-05-26T17:23:05.130Z,24.57
2018-05-26T17:25:32.720Z,24.50
2018-05-26T17:28:00.287Z,24.48
2018-05-26T17:30:27.878Z,24.51
2018-05-26T17:32:55.432Z,24.44
2018-05-26T17:35:23.042Z,24.29
2018-05-26T17:37:50.597Z,24.09
2018-05-26T17:40:18.173Z,23.97
2018-05-26T17:42:45.756Z,23.86
2018-05-26T17:45:13.338Z,23.73
2018-05-26T17:47:40.920Z,23.61
2018-05-26T17:50:08.478Z,23.55
2018-05-26T17:52:36.048Z,23.50
2018-05-26T17:55:03.703Z,23.45
2018-05-26T17:57:31.405Z,23.33
2018-05-26T17:59:59.036Z,23.19
2018-05-26T18:02:26.654Z,23.07
2018-05-26T18:04:54.243Z,22.92
2018-05-26T18:07:21.886Z,22.87
2018-05-26T18:09:49.479Z,22.82
2018-05-26T18:12:17.047Z,22.65
2018-05-26T18:14:44.616Z,22.55
2018-05-26T18:17:12.178Z,22.53
2018-05-26T18:19:39.796Z,22.52
2018-05-26T18:22:07.369Z,22.55
2018-05-26T18:24:34.921Z,22.56
2018-05-26T18:27:02.493Z,22.60
2018-05-26T18:29:30.081Z,22.65
2018-05-26T18:31:57.703Z,22.55
2018-05-26T18:34:25.346Z,22.39
2018-05-26T18:36:53.172Z,22.21
2018-05-26T18:39:21.064Z,22.04
2018-05-26T18:41:49.004Z,21.71
2018-05-26T18:44:16.884Z,21.56
2018-05-26T18:46:44.836Z,21.50
2018-05-26T18:49:12.768Z,21.41
2018-05-26T18:51:41.076Z,21.34
2018-05-26T18:54:09.044Z,21.26
2018-05-26T18:56:36.881Z,21.27
2018-05-26T18:59:04.841Z,21.32
2018-05-26T19:01:32.740Z,21.33
2018-05-26T19:04:00.776Z,21.37
2018-05-26T19:06:28.744Z,21.40
2018-05-26T19:08:56.613Z,21.37
2018-05-26T19:11:24.849Z,21.29
2018-05-26T19:13:53.241Z,21.25
2018-05-26T19:16:21.229Z,21.25
2018-05-26T19:18:49.193Z,21.12
2018-05-26T19:21:17.199Z,21.03
2018-05-26T19:23:45.151Z,21.00
2018-05-26T19:26:13.563Z,20.94
2018-05-26T19:28:41.531Z,20.88
2018-05-26T19:31:09.481Z,20.85
2018-05-26T19:33:37.813Z,20.74
2018-05-26T19:36:06.213Z,20.66
2018-05-26T19:38:34.478Z,20.61
2018-05-26T19:41:02.679Z,20.57
2018-05-26T19:43:31.203Z,20.47
2018-05-26T19:45:59.519Z,20.48
2018-05-26T19:48:27.632Z,20.43
2018-05-26T19:50:55.973Z,20.39
2018-05-26T19:53:24.388Z,20.42
2018-05-26T19:55:52.811Z,20.44
2018-05-26T19:58:20.878Z,20.44
2018-05-26T20:00:49.023Z,20.34
2018-05-26T20:03:17.264Z,20.27
2018-05-26T20:05:45.690Z,20.29
2018-05-26T20:08:14.000Z,20.34
2018-05-26T20:10:42.416Z,20.33
2018-05-26T20:13:10.537Z,20.33
2018-05-26T20:15:38.999Z,20.33
2018-05-26T20:18:07.392Z,20.28
2018-05-26T20:20:35.546Z,20.27
2018-05-26T20:23:03.423Z,20.20
2018-05-26T20:25:31.434Z,20.17
2018-05-26T20:27:59.362Z,20.00
2018-05-26T20:30:27.384Z,19.78
2018-05-26T20:32:55.099Z,19.71
2018-05-26T20:35:23.259Z,19.73
2018-05-26T20:37:51.019Z,19.75
2018-05-26T20:40:18.700Z,19.71
2018-05-26T20:42:46.478Z,19.73
2018-05-26T20:45:14.056Z,19.79
2018-05-26T20:47:41.648Z,19.92
2018-05-26T20:50:09.333Z,19.95
2018-05-26T20:52:36.852Z,19.93
2018-05-26T20:55:04.436Z,20.00
2018-05-26T20:57:31.988Z,20.01
2018-05-26T20:59:59.581Z,20.06
2018-05-26T21:02:27.138Z,20.06
2018-05-26T21:04:54.692Z,20.04
2018-05-26T21:07:22.252Z,20.03
2018-05-26T21:09:49.808Z,19.91
2018-05-26T21:12:17.368Z,19.84
2018-05-26T21:14:44.924Z,19.63
2018-05-26T21:17:12.533Z,19.51
2018-05-26T21:19:40.088Z,19.41
2018-05-26T21:22:07.648Z,19.35
2018-05-26T21:24:35.228Z,19.28
2018-05-26T21:27:02.783Z,19.17
2018-05-26T21:29:30.349Z,19.09
2018-05-26T21:31:57.896Z,19.11
2018-05-26T21:34:25.469Z,19.13
2018-05-26T21:36:53.018Z,19.09
2018-05-26T21:39:20.635Z,19.09
2018-05-26T21:41:48.472Z,19.15
2018-05-26T21:44:16.025Z,19.08
2018-05-26T21:46:43.589Z,19.11
2018-05-26T21:49:11.169Z,19.17
2018-05-26T21:51:38.724Z,19.19
2018-05-26T21:54:06.287Z,19.19
2018-05-26T21:56:33.848Z,19.07
2018-05-26T21:59:01.401Z,19.08
2018-05-26T22:01:29.057Z,19.04
2018-05-26T22:03:56.615Z,18.97
2018-05-26T22:06:24.199Z,19.00
2018-05-26T22:08:51.747Z,18.82
2018-05-26T22:11:19.292Z,18.99
2018-05-26T22:13:46.849Z,18.99
2018-05-26T22:16:14.408Z,18.98
2018-05-26T22:18:41.964Z,18.97
2018-05-26T22:21:09.512Z,18.93
2018-05-26T22:23:37.177Z,18.92
2018-05-26T22:26:04.748Z,18.93
2018-05-26T22:28:32.294Z,18.90
2018-05-26T22:30:59.856Z,18.83
2018-05-26T22:33:27.404Z,18.80
2018-05-26T22:35:54.989Z,18.74
2018-05-26T22:38:22.537Z,18.67
2018-05-26T22:40:50.102Z,18.47
2018-05-26T22:43:17.705Z,18.65
2018-05-26T22:45:45.252Z,18.65
2018-05-26T22:48:12.828Z,18.67
2018-05-26T22:50:40.373Z,18.62
2018-05-26T22:53:07.928Z,18.61
2018-05-26T22:55:35.481Z,18.55
2018-05-26T22:58:03.030Z,18.50
2018-05-26T23:00:30.588Z,18.52
2018-05-26T23:02:58.174Z,18.56
2018-05-26T23:05:25.730Z,18.58
2018-05-26T23:07:53.272Z,18.63
2018-05-26T23:10:20.884Z,18.62
2018-05-26T23:12:48.432Z,18.60
2018-05-26T23:15:15.971Z,18.56
2018-05-26T23:17:43.528Z,18.52
2018-05-26T23:20:11.080Z,18.48
2018-05-26T23:22:38.644Z,18.48
2018-05-26T23:25:06.188Z,18.49
2018-05-26T23:27:33.802Z,18.56
2018-05-26T23:30:01.348Z,18.60
2018-05-26T23:32:28.925Z,18.54
2018-05-26T23:34:56.482Z,18.59
2018-05-26T23:37:24.020Z,18.62
2018-05-26T23:39:51.580Z,18.64
2018-05-26T23:42:19.126Z,18.65
2018-05-26T23:44:46.728Z,18.56
2018-05-26T23:47:14.273Z,18.52
2018-05-26T23:49:41.827Z,18.46
2018-05-26T23:52:09.387Z,18.45
2018-05-26T23:54:36.939Z,18.41
2018-05-26T23:57:04.536Z,18.39
2018-05-26T23:59:32.850Z,18.33
